createdAt,value
2022-11-17T00:00:33.241Z,3.93
2022-11-17T00:03:01.169Z,3.95
2022-11-17T00:05:29.164Z,3.97
2022-11-17T00:07:58.494Z,4.01
2022-11-17T00:10:26.431Z,3.89
2022-11-17T00:13:11.759Z,3.87
2022-11-17T00:15:44.633Z,3.80
2022-11-17T00:18:26.514Z,3.82
2022-11-17T00:21:12.166Z,3.86
2022-11-17T00:23:50.958Z,3.94
2022-11-17T00:26:20.504Z,3.86
2022-11-17T00:28:48.656Z,3.93
2022-11-17T00:31:34.477Z,3.91
2022-11-17T00:34:08.499Z,3.87
2022-11-17T00:36:39.790Z,3.83
2022-11-17T00:39:10.531Z,3.79
2022-11-17T00:41:38.523Z,3.87
2022-11-17T00:44:07.261Z,3.76
2022-11-17T00:46:37.087Z,3.52
2022-11-17T00:49:05.496Z,3.76
2022-11-17T00:51:33.857Z,3.71
2022-11-17T00:54:02.454Z,3.50
2022-11-17T00:56:32.394Z,3.70
2022-11-17T00:59:00.761Z,3.63
2022-11-17T01:01:30.081Z,3.63
2022-11-17T01:04:04.112Z,3.58
2022-11-17T01:06:35.130Z,3.58
2022-11-17T01:09:05.133Z,3.62
2022-11-17T01:11:34.613Z,3.59
2022-11-17T01:14:02.671Z,3.57
2022-11-17T01:16:32.406Z,3.58
2022-11-17T01:19:02.145Z,3.60
2022-11-17T01:21:31.847Z,3.50
2022-11-17T01:24:01.972Z,3.53
2022-11-17T01:26:31.895Z,3.45
2022-11-17T01:29:02.422Z,3.44
2022-11-17T01:31:31.665Z,3.38
2022-11-17T01:33:59.998Z,3.41
2022-11-17T01:36:30.868Z,3.38
2022-11-17T01:38:58.764Z,3.36
2022-11-17T01:41:29.021Z,3.36
2022-11-17T01:43:58.983Z,3.33
2022-11-17T01:46:33.029Z,3.36
2022-11-17T01:49:06.542Z,3.40
2022-11-17T01:51:38.491Z,3.37
2022-11-17T01:54:07.675Z,3.30
2022-11-17T01:56:40.156Z,3.29
2022-11-17T01:59:15.391Z,3.23
2022-11-17T02:01:56.474Z,3.26
2022-11-17T02:04:26.901Z,3.12
2022-11-17T02:07:00.770Z,3.26
2022-11-17T02:09:29.028Z,3.23
2022-11-17T02:11:58.925Z,3.28
2022-11-17T02:14:26.935Z,3.21
2022-11-17T02:16:56.301Z,3.21
2022-11-17T02:19:28.793Z,3.29
2022-11-17T02:22:18.245Z,3.30
2022-11-17T02:25:27.029Z,3.28
2022-11-17T02:28:07.682Z,3.22
2022-11-17T02:30:41.841Z,3.21
2022-11-17T02:33:17.065Z,3.23
2022-11-17T02:35:55.321Z,3.27
2022-11-17T02:38:30.731Z,3.23
2022-11-17T02:41:08.818Z,3.21
2022-11-17T02:44:04.458Z,3.19
2022-11-17T02:46:41.046Z,3.18
2022-11-17T02:49:16.978Z,3.08
2022-11-17T02:51:45.167Z,3.13
2022-11-17T02:54:13.895Z,3.17
2022-11-17T02:56:42.993Z,3.11
2022-11-17T02:59:14.753Z,3.09
2022-11-17T03:01:58.652Z,3.11
2022-11-17T03:04:42.844Z,3.12
2022-11-17T03:07:22.782Z,3.06
2022-11-17T03:10:01.480Z,3.05
2022-11-17T03:12:35.198Z,3.07
2022-11-17T03:15:13.347Z,3.06
2022-11-17T03:17:49.004Z,3.06
2022-11-17T03:20:23.231Z,3.07
2022-11-17T03:22:58.007Z,3.07
2022-11-17T03:25:28.064Z,3.00
2022-11-17T03:27:59.995Z,3.04
2022-11-17T03:30:34.698Z,3.00
2022-11-17T03:33:11.593Z,2.95
2022-11-17T03:35:47.766Z,2.98
2022-11-17T03:38:22.135Z,2.98
2022-11-17T03:40:51.979Z,2.92
2022-11-17T03:43:21.416Z,3.01
2022-11-17T03:45:54.030Z,2.91
2022-11-17T03:48:27.879Z,2.87
2022-11-17T03:51:04.572Z,2.86
2022-11-17T03:53:34.334Z,2.84
2022-11-17T03:56:12.593Z,2.81
2022-11-17T03:58:46.967Z,2.85
2022-11-17T04:01:16.970Z,2.81
2022-11-17T04:03:44.903Z,2.82
2022-11-17T04:06:13.029Z,2.76
2022-11-17T04:08:41.004Z,2.86
2022-11-17T04:11:26.161Z,2.76
2022-11-17T04:14:11.855Z,2.82
2022-11-17T04:16:41.160Z,2.69
2022-11-17T04:19:09.274Z,2.80
2022-11-17T04:21:37.290Z,2.75
2022-11-17T04:24:05.721Z,2.77
2022-11-17T04:26:50.925Z,2.71
2022-11-17T04:29:18.873Z,2.71
2022-11-17T04:31:48.175Z,2.66
2022-11-17T04:34:16.142Z,2.74
2022-11-17T04:36:47.064Z,2.74
2022-11-17T04:39:16.253Z,2.71
2022-11-17T04:41:58.588Z,2.67
2022-11-17T04:44:27.749Z,2.67
2022-11-17T04:46:57.555Z,2.75
2022-11-17T04:49:26.681Z,2.71
2022-11-17T04:51:55.282Z,2.70
2022-11-17T04:54:25.537Z,2.66
2022-11-17T04:56:54.473Z,2.60
2022-11-17T04:59:22.644Z,2.61
2022-11-17T05:01:51.389Z,2.67
2022-11-17T05:04:35.897Z,2.59
2022-11-17T05:07:03.962Z,2.70
2022-11-17T05:09:32.055Z,2.62
2022-11-17T05:12:17.810Z,2.68
2022-11-17T05:14:47.243Z,2.64
2022-11-17T05:17:14.218Z,2.62
2022-11-17T05:19:45.276Z,2.64
2022-11-17T05:22:32.868Z,2.67
2022-11-17T05:25:01.209Z,2.66
2022-11-17T05:27:29.641Z,2.70
2022-11-17T05:29:57.677Z,2.70
2022-11-17T05:32:25.772Z,2.65
2022-11-17T05:34:55.103Z,2.70
2022-11-17T05:37:23.020Z,2.68
2022-11-17T05:39:51.023Z,3.55
2022-11-17T05:42:19.409Z,3.61
2022-11-17T05:44:48.424Z,3.80
2022-11-17T05:47:16.720Z,3.78
2022-11-17T05:49:44.703Z,3.77
2022-11-17T05:52:14.042Z,3.97
2022-11-17T05:54:42.003Z,3.55
2022-11-17T05:57:15.981Z,3.56
2022-11-17T05:59:47.941Z,3.49
2022-11-17T06:02:18.789Z,3.14
2022-11-17T06:04:47.231Z,2.98
2022-11-17T06:07:17.956Z,2.84
2022-11-17T06:09:47.150Z,2.78
2022-11-17T06:12:15.318Z,2.73
2022-11-17T06:14:43.502Z,2.71
2022-11-17T06:17:22.080Z,2.54
2022-11-17T06:19:55.276Z,2.65
2022-11-17T06:22:26.635Z,2.63
2022-11-17T06:24:55.637Z,2.59
2022-11-17T06:27:25.517Z,2.54
2022-11-17T06:29:54.809Z,2.62
2022-11-17T06:32:23.215Z,2.57
2022-11-17T06:34:55.641Z,2.45
2022-11-17T06:37:26.283Z,2.56
2022-11-17T06:39:54.269Z,2.51
2022-11-17T06:42:42.930Z,2.53
2022-11-17T06:45:12.470Z,2.51
2022-11-17T06:47:40.843Z,2.50
2022-11-17T06:50:09.579Z,2.53
2022-11-17T06:52:39.279Z,2.41
2022-11-17T06:55:08.626Z,2.44
2022-11-17T06:57:36.701Z,2.45
2022-11-17T07:00:06.339Z,2.38
2022-11-17T07:02:34.413Z,2.37
2022-11-17T07:05:02.514Z,2.37
2022-11-17T07:07:30.525Z,2.39
2022-11-17T07:10:00.012Z,2.48
2022-11-17T07:12:28.148Z,2.38
2022-11-17T07:14:56.151Z,2.45
2022-11-17T07:17:24.171Z,2.47
2022-11-17T07:19:53.615Z,2.40
2022-11-17T07:22:21.594Z,2.44
2022-11-17T07:24:49.643Z,2.43
2022-11-17T07:27:18.980Z,2.37
2022-11-17T07:29:47.051Z,2.40
2022-11-17T07:32:15.070Z,2.41
2022-11-17T07:34:43.156Z,2.43
2022-11-17T07:37:11.240Z,2.43
2022-11-17T07:39:39.363Z,2.48
2022-11-17T07:42:07.685Z,2.55
2022-11-17T07:44:37.080Z,2.51
2022-11-17T07:47:05.103Z,2.51
2022-11-17T07:49:33.118Z,2.55
2022-11-17T07:52:02.048Z,2.56
2022-11-17T07:54:30.107Z,2.57
2022-11-17T07:56:58.126Z,2.53
2022-11-17T07:59:26.223Z,2.57
2022-11-17T08:01:55.657Z,2.53
2022-11-17T08:04:23.643Z,2.53
2022-11-17T08:06:51.902Z,2.54
2022-11-17T08:09:20.007Z,2.56
2022-11-17T08:11:48.368Z,2.58
2022-11-17T08:14:16.419Z,2.51
2022-11-17T08:16:44.436Z,2.52
2022-11-17T08:19:14.345Z,2.52
2022-11-17T08:21:42.401Z,2.48
2022-11-17T08:24:13.569Z,2.51
2022-11-17T08:26:41.585Z,2.53
2022-11-17T08:29:09.849Z,2.43
2022-11-17T08:31:38.713Z,2.47
2022-11-17T08:34:06.757Z,2.51
2022-11-17T08:36:36.186Z,2.47
2022-11-17T08:39:04.907Z,2.53
2022-11-17T08:41:33.184Z,2.60
2022-11-17T08:44:01.439Z,2.66
2022-11-17T08:46:29.486Z,2.55
2022-11-17T08:48:57.539Z,2.62
2022-11-17T08:51:27.259Z,2.56
2022-11-17T08:53:57.196Z,2.59
2022-11-17T08:56:25.175Z,2.53
2022-11-17T08:58:53.173Z,2.52
2022-11-17T09:01:21.262Z,2.57
2022-11-17T09:03:49.325Z,2.55
2022-11-17T09:06:18.514Z,2.54
2022-11-17T09:08:47.448Z,2.54
2022-11-17T09:11:17.673Z,2.61
2022-11-17T09:13:47.026Z,2.64
2022-11-17T09:16:16.259Z,2.68
2022-11-17T09:18:44.404Z,2.70
2022-11-17T09:21:25.943Z,2.69
2022-11-17T09:23:54.493Z,2.68
2022-11-17T09:26:24.048Z,2.75
2022-11-17T09:28:52.062Z,2.78
2022-11-17T09:31:22.654Z,2.83
2022-11-17T09:33:50.840Z,2.81
2022-11-17T09:36:19.009Z,2.85
2022-11-17T09:38:48.014Z,2.86
2022-11-17T09:41:26.339Z,2.89
2022-11-17T09:44:11.925Z,2.88
2022-11-17T09:46:56.096Z,2.99
2022-11-17T09:49:37.210Z,2.95
2022-11-17T09:52:14.474Z,2.97
2022-11-17T09:54:46.496Z,3.01
2022-11-17T09:57:23.345Z,2.99
2022-11-17T10:00:00.010Z,3.04
2022-11-17T10:02:28.034Z,3.08
2022-11-17T10:04:56.292Z,3.03
2022-11-17T10:07:24.670Z,3.06
2022-11-17T10:09:54.001Z,3.03
2022-11-17T10:12:27.599Z,3.07
2022-11-17T10:14:56.479Z,3.02
2022-11-17T10:17:24.506Z,3.08
2022-11-17T10:19:52.547Z,3.15
2022-11-17T10:22:34.471Z,3.10
2022-11-17T10:25:02.807Z,3.16
2022-11-17T10:27:34.314Z,3.22
2022-11-17T10:30:05.609Z,3.12
2022-11-17T10:32:37.431Z,3.10
2022-11-17T10:35:16.092Z,3.09
2022-11-17T10:37:52.746Z,3.17
2022-11-17T10:40:25.287Z,3.15
2022-11-17T10:43:21.388Z,3.18
2022-11-17T10:45:51.901Z,3.26
2022-11-17T10:48:29.707Z,3.15
2022-11-17T10:50:59.710Z,3.26
2022-11-17T10:53:31.375Z,3.10
2022-11-17T10:56:04.079Z,3.24
2022-11-17T10:58:38.790Z,3.24
2022-11-17T11:01:07.195Z,3.21
2022-11-17T11:03:36.605Z,3.26
2022-11-17T11:06:09.825Z,3.27
2022-11-17T11:08:51.018Z,3.28
2022-11-17T11:11:41.702Z,3.34
2022-11-17T11:14:23.158Z,3.29
2022-11-17T11:16:51.870Z,3.25
2022-11-17T11:19:21.641Z,3.33
2022-11-17T11:22:20.810Z,3.32
2022-11-17T11:24:55.979Z,3.28
2022-11-17T11:27:36.341Z,3.32
2022-11-17T11:30:07.770Z,3.36
2022-11-17T11:32:48.214Z,3.29
2022-11-17T11:35:45.518Z,3.27
2022-11-17T11:38:31.728Z,3.29
2022-11-17T11:41:12.258Z,3.35
2022-11-17T11:43:50.620Z,3.33
2022-11-17T11:46:26.030Z,3.30
2022-11-17T11:48:58.310Z,3.19
2022-11-17T11:51:30.215Z,3.19
2022-11-17T11:54:03.384Z,3.26
2022-11-17T11:56:34.981Z,3.18
2022-11-17T11:59:07.633Z,3.17
2022-11-17T12:01:48.705Z,3.15
2022-11-17T12:04:31.529Z,3.13
2022-11-17T12:07:06.857Z,3.21
2022-11-17T12:09:49.256Z,3.16
2022-11-17T12:12:19.243Z,3.15
2022-11-17T12:15:13.953Z,3.10
2022-11-17T12:17:59.266Z,3.09
2022-11-17T12:21:03.707Z,3.08
2022-11-17T12:23:55.033Z,3.01
2022-11-17T12:26:25.831Z,2.99
2022-11-17T12:29:25.518Z,3.05
2022-11-17T12:31:54.031Z,2.86
2022-11-17T12:34:26.728Z,2.85
2022-11-17T12:37:16.738Z,2.92
2022-11-17T12:39:59.755Z,2.79
2022-11-17T12:42:28.804Z,2.80
2022-11-17T12:44:59.287Z,2.75
2022-11-17T12:47:29.707Z,2.66
2022-11-17T12:50:21.546Z,2.74
2022-11-17T12:53:13.052Z,2.75
2022-11-17T12:55:59.451Z,2.65
2022-11-17T12:58:36.413Z,2.75
2022-11-17T13:01:13.527Z,2.75
2022-11-17T13:03:49.359Z,2.70
2022-11-17T13:06:34.888Z,2.74
2022-11-17T13:09:07.268Z,2.72
2022-11-17T13:11:36.341Z,2.73
2022-11-17T13:14:09.797Z,2.73
2022-11-17T13:16:44.025Z,2.65
2022-11-17T13:19:31.801Z,2.63
2022-11-17T13:22:03.932Z,2.69
2022-11-17T13:24:35.683Z,2.60
2022-11-17T13:27:07.429Z,2.69
2022-11-17T13:29:36.408Z,2.65
2022-11-17T13:32:20.244Z,2.64
2022-11-17T13:34:54.071Z,2.63
2022-11-17T13:37:25.756Z,2.59
2022-11-17T13:39:59.253Z,2.64
2022-11-17T13:42:30.116Z,2.52
2022-11-17T13:45:01.987Z,2.51
2022-11-17T13:47:45.449Z,2.42
2022-11-17T13:50:37.067Z,2.52
2022-11-17T13:53:17.929Z,2.52
2022-11-17T13:55:47.908Z,2.42
2022-11-17T13:58:27.635Z,2.46
2022-11-17T14:00:58.284Z,2.46
2022-11-17T14:03:37.942Z,2.46
2022-11-17T14:06:08.400Z,2.40
2022-11-17T14:08:39.819Z,2.40
2022-11-17T14:11:15.699Z,2.30
2022-11-17T14:13:46.111Z,2.33
2022-11-17T14:16:35.941Z,2.33
2022-11-17T14:19:06.886Z,2.33
2022-11-17T14:21:35.095Z,2.28
2022-11-17T14:24:07.536Z,2.35
2022-11-17T14:26:35.591Z,2.27
2022-11-17T14:29:03.879Z,2.25
2022-11-17T14:31:33.200Z,2.22
2022-11-17T14:34:01.304Z,2.26
2022-11-17T14:36:29.510Z,2.02
2022-11-17T14:38:57.460Z,2.25
2022-11-17T14:41:26.872Z,2.29
2022-11-17T14:43:55.014Z,2.24
2022-11-17T14:46:25.714Z,2.21
2022-11-17T14:48:55.485Z,2.11
2022-11-17T14:51:23.724Z,2.21
2022-11-17T14:53:51.787Z,2.16
2022-11-17T14:56:22.085Z,2.22
2022-11-17T14:58:56.335Z,2.26
2022-11-17T15:01:28.646Z,2.24
2022-11-17T15:03:58.014Z,2.06
2022-11-17T15:06:26.592Z,2.12
2022-11-17T15:08:56.283Z,2.23
2022-11-17T15:11:25.405Z,2.20
2022-11-17T15:13:54.743Z,2.18
2022-11-17T15:16:22.678Z,2.20
2022-11-17T15:18:51.053Z,2.20
2022-11-17T15:21:19.074Z,2.23
2022-11-17T15:23:47.193Z,2.19
2022-11-17T15:26:18.736Z,2.20
2022-11-17T15:28:47.127Z,2.15
2022-11-17T15:31:18.317Z,2.20
2022-11-17T15:33:47.699Z,2.24
2022-11-17T15:36:17.824Z,2.19
2022-11-17T15:38:47.470Z,2.19
2022-11-17T15:41:16.772Z,2.22
2022-11-17T15:43:46.078Z,2.20
2022-11-17T15:46:17.381Z,2.20
2022-11-17T15:48:47.212Z,2.20
2022-11-17T15:51:16.978Z,2.18
2022-11-17T15:53:46.553Z,2.15
2022-11-17T15:56:16.587Z,2.15
2022-11-17T15:58:45.195Z,2.09
2022-11-17T16:01:15.174Z,2.17
2022-11-17T16:03:46.333Z,2.16
2022-11-17T16:06:14.351Z,2.18
2022-11-17T16:08:42.412Z,2.12
2022-11-17T16:11:11.671Z,2.13
2022-11-17T16:13:39.988Z,2.11
2022-11-17T16:16:09.235Z,2.11
2022-11-17T16:18:38.667Z,2.17
2022-11-17T16:21:10.887Z,2.09
2022-11-17T16:23:40.116Z,2.13
2022-11-17T16:26:08.407Z,2.14
2022-11-17T16:28:36.575Z,2.11
2022-11-17T16:31:13.824Z,2.12
2022-11-17T16:33:42.609Z,2.16
2022-11-17T16:36:12.026Z,2.12
2022-11-17T16:38:55.077Z,2.09
2022-11-17T16:41:29.681Z,2.14
2022-11-17T16:43:57.798Z,2.11
2022-11-17T16:46:28.699Z,2.03
2022-11-17T16:48:57.815Z,2.15
2022-11-17T16:51:27.233Z,2.08
2022-11-17T16:54:00.310Z,2.14
2022-11-17T16:56:28.872Z,2.12
2022-11-17T16:58:57.089Z,2.08
2022-11-17T17:01:27.149Z,2.09
2022-11-17T17:03:58.462Z,2.08
2022-11-17T17:06:28.812Z,2.11
2022-11-17T17:08:57.722Z,2.05
2022-11-17T17:11:27.300Z,2.17
2022-11-17T17:13:56.462Z,2.20
2022-11-17T17:16:25.762Z,2.18
2022-11-17T17:18:56.250Z,2.13
2022-11-17T17:21:24.391Z,2.25
2022-11-17T17:23:53.842Z,2.20
2022-11-17T17:26:23.512Z,2.22
2022-11-17T17:28:55.001Z,2.16
2022-11-17T17:31:24.910Z,2.22
2022-11-17T17:33:53.630Z,2.17
2022-11-17T17:36:22.878Z,2.05
2022-11-17T17:38:55.601Z,2.13
2022-11-17T17:41:27.557Z,2.03
2022-11-17T17:43:57.504Z,1.99
2022-11-17T17:46:26.113Z,1.99
2022-11-17T17:48:54.312Z,2.03
2022-11-17T17:51:25.043Z,1.99
2022-11-17T17:53:53.718Z,2.00
2022-11-17T17:56:23.568Z,1.98
2022-11-17T17:58:55.500Z,1.99
2022-11-17T18:01:25.368Z,1.94
2022-11-17T18:03:55.010Z,1.97
2022-11-17T18:06:23.540Z,2.00
2022-11-17T18:08:51.495Z,1.97
2022-11-17T18:11:21.055Z,1.91
2022-11-17T18:13:53.023Z,1.97
2022-11-17T18:16:23.367Z,1.93
2022-11-17T18:18:56.284Z,1.95
2022-11-17T18:21:24.317Z,1.96
2022-11-17T18:23:53.906Z,2.00
2022-11-17T18:26:24.484Z,2.00
2022-11-17T18:28:55.334Z,1.95
2022-11-17T18:31:25.154Z,1.98
2022-11-17T18:33:54.092Z,2.00
2022-11-17T18:36:22.713Z,1.99
2022-11-17T18:38:51.144Z,1.93
2022-11-17T18:41:20.498Z,1.94
2022-11-17T18:43:48.954Z,1.91
2022-11-17T18:46:20.042Z,1.88
2022-11-17T18:48:50.927Z,1.97
2022-11-17T18:51:21.127Z,1.93
2022-11-17T18:53:49.716Z,1.88
2022-11-17T18:56:20.057Z,1.85
2022-11-17T18:58:48.336Z,1.82
2022-11-17T19:01:19.215Z,1.78
2022-11-17T19:03:49.212Z,1.79
2022-11-17T19:06:18.667Z,1.77
2022-11-17T19:08:48.113Z,1.74
2022-11-17T19:11:17.601Z,1.69
2022-11-17T19:13:46.186Z,1.72
2022-11-17T19:16:16.122Z,1.62
2022-11-17T19:18:46.888Z,1.72
2022-11-17T19:21:16.398Z,1.72
2022-11-17T19:23:51.070Z,1.75
2022-11-17T19:26:22.040Z,1.76
2022-11-17T19:28:50.709Z,1.65
2022-11-17T19:31:20.877Z,1.69
2022-11-17T19:33:51.213Z,1.72
2022-11-17T19:36:20.831Z,1.68
2022-11-17T19:38:50.084Z,1.67
2022-11-17T19:41:20.475Z,1.64
2022-11-17T19:43:48.505Z,1.67
2022-11-17T19:46:17.994Z,1.62
2022-11-17T19:48:46.559Z,1.67
2022-11-17T19:51:20.850Z,1.70
2022-11-17T19:53:49.614Z,1.64
2022-11-17T19:56:17.851Z,1.68
2022-11-17T19:58:46.641Z,1.61
2022-11-17T20:01:17.930Z,1.60
2022-11-17T20:03:47.041Z,1.60
2022-11-17T20:06:17.369Z,1.57
2022-11-17T20:08:47.375Z,1.54
2022-11-17T20:11:16.995Z,1.54
2022-11-17T20:13:45.533Z,1.48
2022-11-17T20:16:15.712Z,1.42
2022-11-17T20:18:44.607Z,1.38
2022-11-17T20:21:13.941Z,1.41
2022-11-17T20:23:43.421Z,1.33
2022-11-17T20:26:15.203Z,1.30
2022-11-17T20:28:43.531Z,1.30
2022-11-17T20:31:13.991Z,1.25
2022-11-17T20:33:43.292Z,1.25
2022-11-17T20:36:13.964Z,1.18
2022-11-17T20:38:42.038Z,1.21
2022-11-17T20:41:10.518Z,1.14
2022-11-17T20:43:40.010Z,1.07
2022-11-17T20:46:07.993Z,1.01
2022-11-17T20:48:36.089Z,0.99
2022-11-17T20:51:06.606Z,1.04
2022-11-17T20:53:35.315Z,0.98
2022-11-17T20:56:04.630Z,0.96
2022-11-17T20:58:32.670Z,0.96
2022-11-17T21:01:07.747Z,0.92
2022-11-17T21:03:36.101Z,0.94
2022-11-17T21:06:05.545Z,0.88
2022-11-17T21:08:36.663Z,0.80
2022-11-17T21:11:06.390Z,0.77
2022-11-17T21:13:35.814Z,0.83
2022-11-17T21:16:07.528Z,0.85
2022-11-17T21:18:36.852Z,0.62
2022-11-17T21:21:08.951Z,0.66
2022-11-17T21:23:37.585Z,0.74
2022-11-17T21:26:06.793Z,0.79
2022-11-17T21:28:35.057Z,0.72
2022-11-17T21:31:07.664Z,0.73
2022-11-17T21:33:36.046Z,0.70
2022-11-17T21:36:05.261Z,0.70
2022-11-17T21:38:33.301Z,0.62
2022-11-17T21:41:04.824Z,0.68
2022-11-17T21:43:32.951Z,0.63
2022-11-17T21:46:07.022Z,0.55
2022-11-17T21:48:35.750Z,0.63
2022-11-17T21:51:04.450Z,0.58
2022-11-17T21:53:32.583Z,0.61
2022-11-17T21:56:04.457Z,0.59
2022-11-17T21:58:33.406Z,0.61
2022-11-17T22:01:09.885Z,0.62
2022-11-17T22:03:38.467Z,0.62
2022-11-17T22:06:09.082Z,0.68
2022-11-17T22:08:38.469Z,0.74
2022-11-17T22:11:08.654Z,0.77
2022-11-17T22:13:36.809Z,0.81
2022-11-17T22:16:06.692Z,0.80
2022-11-17T22:18:36.344Z,0.88
2022-11-17T22:21:05.155Z,0.89
2022-11-17T22:23:33.625Z,0.84
2022-11-17T22:26:04.117Z,0.83
2022-11-17T22:28:32.145Z,0.90
2022-11-17T22:31:00.300Z,0.92
2022-11-17T22:33:28.247Z,0.92
2022-11-17T22:36:01.805Z,0.91
2022-11-17T22:38:30.957Z,0.91
2022-11-17T22:41:00.546Z,0.96
2022-11-17T22:43:28.671Z,0.91
2022-11-17T22:45:57.644Z,0.93
2022-11-17T22:48:25.657Z,0.93
2022-11-17T22:50:53.752Z,0.91
2022-11-17T22:53:23.284Z,0.92
2022-11-17T22:55:51.334Z,0.91
2022-11-17T22:58:19.669Z,0.95
2022-11-17T23:00:47.751Z,0.90
2022-11-17T23:03:15.746Z,0.90
2022-11-17T23:05:43.856Z,0.87
2022-11-17T23:08:11.893Z,0.89
2022-11-17T23:10:41.249Z,0.88
2022-11-17T23:13:09.294Z,0.88
2022-11-17T23:15:39.398Z,0.84
2022-11-17T23:18:07.365Z,0.79
2022-11-17T23:20:37.235Z,0.71
2022-11-17T23:23:05.263Z,0.67
2022-11-17T23:25:33.322Z,0.66
2022-11-17T23:28:02.765Z,0.65
2022-11-17T23:30:30.851Z,0.65
2022-11-17T23:32:58.874Z,0.54
2022-11-17T23:35:26.907Z,0.52
2022-11-17T23:37:54.818Z,0.53
2022-11-17T23:40:22.807Z,0.41
2022-11-17T23:42:50.847Z,0.37
2022-11-17T23:45:20.247Z,0.38
2022-11-17T23:47:48.366Z,0.39
2022-11-17T23:50:16.462Z,0.42
2022-11-17T23:52:44.438Z,0.33
2022-11-17T23:55:12.463Z,0.27
2022-11-17T23:57:40.484Z,0.21
